Terminal Aerodrome Forecast
Issued by NWS

Home | Current Version | Previous Version | Text Only | Print | Product List | Glossary On
Versions: 1 2 3 4 5 6 7 8 9 10 11 12 13 14 15 16
000
FTUS46 KSEW 201700
TAFPAE
TAF
KPAE 201721Z 2018/2118 16005KT P6SM SCT035 BKN070
     FM202000 19006KT P6SM SCT070 SCT120
     FM210400 14003KT P6SM SCT120
     FM211500 09005KT P6SM BKN070=

USA.gov is the U.S. government's official web portal to all federal, state and local government web resources and services.